Time;durP1;ratioP1;P1;durP2;ratioP2;P2;SDS_P1;SDS_P2;PMS_P1;PMS_P2;Temp;Humidity;BMP_temperature;BMP_pressure;BME280_temperature;BME280_humidity;BME280_pressure;Samples;Min_cycle;Max_cycle;Signal;HPM_P1;HPM_P2
2022/11/11 00:04:29;;;;;;;15.45;11.82;;;;;;;8.83;100.00;101734.06;10499979;28;20048;-75
2022/11/11 00:09:30;;;;;;;17.95;12.32;;;;;;;8.86;100.00;101728.50;10500410;28;20044;-75
2022/11/11 00:14:31;;;;;;;15.88;11.52;;;;;;;8.73;100.00;101710.09;10499583;28;20044;-75
2022/11/11 00:25:07;;;;;;;12.32;10.68;;;;;;;8.79;100.00;101725.50;10498576;28;20527;-74
2022/11/11 00:30:08;;;;;;;14.63;12.05;;;;;;;8.72;100.00;101720.81;10498415;28;20523;-75
2022/11/11 00:40:28;;;;;;;15.85;12.68;;;;;;;8.72;100.00;101721.66;10498585;28;20108;-74
2022/11/11 00:45:29;;;;;;;14.95;13.00;;;;;;;8.78;100.00;101730.94;10497950;28;20050;-75
2022/11/11 00:55:49;;;;;;;18.20;14.30;;;;;;;8.57;100.00;101710.47;10497736;28;20040;-75
2022/11/11 01:00:52;;;;;;;17.50;15.57;;;;;;;8.69;100.00;101735.16;10497187;28;20178;-74
2022/11/11 01:06:00;;;;;;;17.27;14.90;;;;;;;8.59;100.00;101716.50;10496846;28;20056;-74
2022/11/11 01:11:01;;;;;;;21.08;15.82;;;;;;;8.69;100.00;101728.03;10496996;28;20040;-75
2022/11/11 01:16:05;;;;;;;20.10;15.93;;;;;;;8.69;100.00;101724.56;10499242;28;20048;-75
2022/11/11 01:21:19;;;;;;;18.17;16.13;;;;;;;8.58;100.00;101692.75;10505158;28;20094;-74
2022/11/11 01:26:23;;;;;;;23.50;14.47;;;;;;;8.76;100.00;101725.72;10497295;28;20036;-74
2022/11/11 01:31:25;;;;;;;;;;;;;;;8.90;100.00;101727.28;10497666;28;20044;-75
2022/11/11 01:36:27;;;;;;;21.00;14.50;;;;;;;8.73;100.00;101733.94;10495771;28;19912;-74
2022/11/11 01:41:37;;;;;;;16.63;13.90;;;;;;;8.70;100.00;101736.81;10494787;28;20049;-75
2022/11/11 01:46:55;;;;;;;18.30;14.85;;;;;;;8.61;100.00;101730.44;10496416;28;20040;-74
2022/11/11 01:52:32;;;;;;;18.13;12.27;;;;;;;8.61;100.00;101741.03;10495652;28;20044;-74
2022/11/11 01:57:47;;;;;;;13.43;11.32;;;;;;;8.49;100.00;101741.16;10495456;28;20041;-74
2022/11/11 02:02:53;;;;;;;13.10;11.00;;;;;;;8.43;100.00;101735.38;10503226;28;20042;-75
2022/11/11 02:07:57;;;;;;;12.57;10.52;;;;;;;8.41;100.00;101737.31;10541220;28;20507;-75
2022/11/11 02:18:18;;;;;;;12.68;10.60;;;;;;;8.36;100.00;101720.06;10495478;28;20492;-75
2022/11/11 02:23:26;;;;;;;14.35;10.43;;;;;;;8.23;100.00;101710.44;10527124;28;20122;-75
2022/11/11 02:28:27;;;;;;;12.90;10.43;;;;;;;8.27;100.00;101718.97;10496419;28;20428;-74
2022/11/11 02:33:28;;;;;;;11.60;9.75;;;;;;;8.23;100.00;101728.13;10494076;28;20068;-75
2022/11/11 02:38:29;;;;;;;11.68;9.98;;;;;;;8.15;100.00;101723.44;10493874;28;20088;-75
2022/11/11 02:43:31;;;;;;;11.90;10.10;;;;;;;7.60;100.00;101629.78;10507146;28;20076;-74
2022/11/11 02:48:33;;;;;;;15.77;10.55;;;;;;;8.22;100.00;101732.56;10502059;28;20389;-75
2022/11/11 02:53:34;;;;;;;14.13;11.23;;;;;;;8.19;100.00;101726.66;10503233;28;20044;-75
2022/11/11 02:58:35;;;;;;;20.15;12.52;;;;;;;8.22;100.00;101723.78;10504567;28;20093;-74
2022/11/11 03:03:36;;;;;;;15.80;11.50;;;;;;;8.30;100.00;101729.34;10536160;28;20120;-75
2022/11/11 03:08:36;;;;;;;23.55;13.38;;;;;;;8.27;100.00;101723.44;10543862;28;20055;-74
2022/11/11 03:13:37;;;;;;;20.13;14.07;;;;;;;8.35;100.00;101729.00;10543799;28;20063;-75
2022/11/11 03:18:38;;;;;;;17.83;12.27;;;;;;;8.40;100.00;101724.19;10543269;28;20410;-74
2022/11/11 03:23:39;;;;;;;22.20;13.05;;;;;;;8.40;100.00;101724.19;10499658;28;20066;-75
2022/11/11 03:28:40;;;;;;;16.92;12.95;;;;;;;8.44;100.00;101723.00;10512301;28;20043;-75
2022/11/11 03:33:41;;;;;;;17.40;11.80;;;;;;;8.44;100.00;101737.09;10521517;28;20123;-75
2022/11/11 03:38:42;;;;;;;22.15;12.05;;;;;;;7.86;100.00;101650.72;10500267;28;20581;-74
2022/11/11 03:43:42;;;;;;;18.35;11.38;;;;;;;8.28;100.00;101722.47;10500940;28;20040;-74
2022/11/11 03:48:43;;;;;;;13.13;11.57;;;;;;;8.37;100.00;101729.69;10500268;28;20045;-75
2022/11/11 03:53:44;;;;;;;25.40;11.60;;;;;;;8.49;100.00;101736.72;10500058;28;20040;-74
2022/11/11 03:58:45;;;;;;;27.38;11.88;;;;;;;8.50;100.00;101733.13;10498438;28;20127;-75
2022/11/11 04:30:24;;;;;;;15.10;10.43;;;;;;;8.39;100.00;101776.31;10494492;28;20044;-75
2022/11/11 04:35:25;;;;;;;12.00;10.60;;;;;;;8.31;100.00;101746.06;10486724;27;20124;-72
2022/11/11 04:45:45;;;;;;;16.55;11.27;;;;;;;8.04;100.00;101698.75;10497734;28;20051;-72
2022/11/11 04:50:46;;;;;;;17.45;12.52;;;;;;;8.41;100.00;101757.66;10497783;28;20080;-73
2022/11/11 05:01:07;;;;;;;22.70;13.13;;;;;;;8.47;100.00;101790.78;10508481;28;20039;-72
2022/11/11 05:11:34;;;;;;;24.60;12.55;;;;;;;8.33;100.00;101790.00;10497302;28;20124;-71
2022/11/11 05:22:17;;;;;;;17.30;11.15;;;;;;;8.29;100.00;101806.25;10517753;28;20051;-71
2022/11/11 05:27:20;;;;;;;19.17;10.93;;;;;;;8.23;100.00;101807.56;10524353;28;20062;-69
2022/11/11 05:32:22;;;;;;;22.63;10.75;;;;;;;7.90;100.00;101750.09;10513154;28;20036;-70
2022/11/11 05:37:23;;;;;;;16.88;10.15;;;;;;;8.11;100.00;101780.22;10524722;28;20051;-69
2022/11/11 05:42:24;;;;;;;14.23;10.77;;;;;;;8.21;100.00;101802.38;10525430;28;20052;-71
2022/11/11 05:47:25;;;;;;;22.17;9.90;;;;;;;8.17;100.00;101808.88;10530326;28;20059;-70
2022/11/11 05:52:26;;;;;;;15.23;9.50;;;;;;;7.92;100.00;101782.56;10537145;28;20043;-70
2022/11/11 05:57:27;;;;;;;18.92;9.93;;;;;;;8.01;100.00;101782.69;10497342;28;20377;-70
2022/11/11 06:02:28;;;;;;;15.75;9.55;;;;;;;8.15;100.00;101799.34;10495937;28;20121;-71
2022/11/11 06:07:28;;;;;;;18.02;10.32;;;;;;;8.03;100.00;101779.94;10483618;28;20060;-72
2022/11/11 06:13:00;;;;;;;13.82;9.45;;;;;;;7.97;100.00;101781.25;10508197;28;20069;-72
2022/11/11 06:17:50;;;;;;;17.00;8.07;;;;;;;7.62;100.00;101757.44;10509556;28;20031;-70
2022/11/11 06:22:56;;;;;;;14.32;7.93;;;;;;;7.85;100.00;101808.63;10514058;28;20044;-74
2022/11/11 06:27:57;;;;;;;11.90;7.93;;;;;;;7.86;100.00;101802.38;10524248;28;20399;-70
2022/11/11 06:32:58;;;;;;;13.57;8.18;;;;;;;7.84;100.00;101800.78;10515233;28;20037;-71
2022/11/11 06:37:59;;;;;;;17.88;8.18;;;;;;;7.47;100.00;101719.75;10502608;28;20040;-70
2022/11/11 06:43:00;;;;;;;10.85;7.13;;;;;;;7.96;100.00;101784.88;10503046;28;20044;-70
2022/11/11 06:48:02;;;;;;;12.15;6.78;;;;;;;7.59;100.00;101707.41;10502762;28;20042;-71
2022/11/11 06:53:10;;;;;;;11.80;7.25;;;;;;;8.07;100.00;101783.19;10502318;28;20044;-70
2022/11/11 06:58:16;;;;;;;16.27;8.02;;;;;;;8.21;100.00;101799.72;10502398;28;20041;-71
2022/11/11 07:03:19;;;;;;;9.80;7.05;;;;;;;7.96;100.00;101720.53;10502711;28;20069;-71
2022/11/11 07:08:20;;;;;;;11.43;7.18;;;;;;;8.49;100.00;101786.19;10503236;28;20500;-70
2022/11/11 07:13:21;;;;;;;11.23;7.38;;;;;;;8.60;100.00;101797.63;10501342;28;20037;-69
2022/11/11 07:18:22;;;;;;;21.27;11.60;;;;;;;8.08;100.00;101706.34;10501735;28;20642;-69
2022/11/11 07:23:23;;;;;;;19.23;8.25;;;;;;;8.29;100.00;101730.31;10501033;28;20115;-70
2022/11/11 07:28:24;;;;;;;19.33;6.70;;;;;;;8.84;100.00;101796.69;10502479;28;20036;-70
2022/11/11 07:33:25;;;;;;;11.02;7.22;;;;;;;8.81;100.00;101776.56;10500913;28;20044;-70
2022/11/11 07:38:26;;;;;;;15.32;6.80;;;;;;;9.06;100.00;101801.09;10500809;28;20052;-70
2022/11/11 07:43:26;;;;;;;14.48;6.70;;;;;;;9.18;100.00;101804.59;10500271;28;20037;-70
2022/11/11 07:48:27;;;;;;;16.38;6.32;;;;;;;8.91;100.00;101747.50;10500778;28;20086;-70
2022/11/11 07:53:28;;;;;;;12.77;6.63;;;;;;;9.18;100.00;101762.16;10499731;28;20036;-70
2022/11/11 07:58:29;;;;;;;16.60;6.15;;;;;;;9.47;100.00;101784.50;10499759;28;20044;-70
2022/11/11 08:03:30;;;;;;;16.80;6.07;;;;;;;9.55;100.00;101770.63;10499397;28;20040;-70
2022/11/11 08:08:30;;;;;;;16.95;6.10;;;;;;;9.66;100.00;101778.53;10500338;28;20052;-70
2022/11/11 08:13:40;;;;;;;16.08;6.07;;;;;;;9.33;100.00;101715.84;10499699;28;20074;-70
2022/11/11 08:18:41;;;;;;;10.15;6.00;;;;;;;9.73;100.00;101770.91;10499526;28;20036;-70
2022/11/11 08:23:42;;;;;;;18.55;6.10;;;;;;;9.95;100.00;101760.19;10501292;28;20563;-71
2022/11/11 08:28:43;;;;;;;17.63;5.25;;;;;;;9.93;100.00;101700.22;10515909;28;20119;-71
2022/11/11 08:33:44;;;;;;;16.42;5.20;;;;;;;9.77;100.00;101672.34;10508802;28;20068;-72
2022/11/11 08:38:45;;;;;;;12.13;5.55;;;;;;;9.82;100.00;101680.75;10509433;28;20087;-72
2022/11/11 08:43:46;;;;;;;15.38;5.30;;;;;;;10.13;100.00;101735.69;10497305;28;20079;-72
2022/11/11 08:48:47;;;;;;;15.25;5.95;;;;;;;9.72;100.00;101679.88;10510049;28;20506;-73
2022/11/11 08:53:48;;;;;;;11.02;4.88;;;;;;;10.11;100.00;101753.56;10521607;28;20487;-69
2022/11/11 08:58:48;;;;;;;14.63;5.45;;;;;;;10.13;100.00;101756.94;10540334;28;20043;-70
2022/11/11 09:03:49;;;;;;;15.05;4.57;;;;;;;10.29;100.00;101720.19;10507733;28;20044;-70
2022/11/11 09:08:50;;;;;;;8.43;4.20;;;;;;;10.59;100.00;101742.38;10496630;28;20428;-70
2022/11/11 09:13:51;;;;;;;10.15;4.20;;;;;;;10.52;100.00;101736.75;10496900;28;20044;-70
2022/11/11 09:18:51;;;;;;;16.00;4.72;;;;;;;10.28;100.00;101668.84;10496707;28;20090;-70
2022/11/11 09:23:52;;;;;;;7.75;4.38;;;;;;;10.66;100.00;101731.09;10496205;28;20078;-69
2022/11/11 09:28:53;;;;;;;13.35;4.35;;;;;;;10.15;100.00;101667.38;10495925;28;20062;-70
2022/11/11 09:33:54;;;;;;;7.85;4.10;;;;;;;10.36;100.00;101734.59;10496424;28;20484;-70
2022/11/11 09:38:54;;;;;;;13.25;4.43;;;;;;;10.34;100.00;101714.44;10494857;28;20059;-69
2022/11/11 09:43:58;;;;;;;10.40;4.45;;;;;;;10.45;100.00;101706.41;10495650;28;20047;-69
2022/11/11 09:49:26;;;;;;;11.55;4.25;;;;;;;10.16;100.00;101659.25;10495596;28;20033;-70
2022/11/11 09:54:40;;;;;;;17.55;4.50;;;;;;;10.11;100.00;101644.69;10495011;28;20076;-70
2022/11/11 09:59:47;;;;;;;14.45;3.80;;;;;;;10.26;100.00;101685.84;10495786;28;20039;-70
2022/11/11 10:04:58;;;;;;;12.18;4.18;;;;;;;10.54;100.00;101705.59;10496286;28;20535;-69
2022/11/11 10:10:17;;;;;;;10.63;4.05;;;;;;;10.54;100.00;101707.41;10495759;28;20506;-69
2022/11/11 10:15:18;;;;;;;12.98;4.15;;;;;;;10.47;100.00;101705.28;10494443;28;20102;-69
2022/11/11 10:20:19;;;;;;;22.33;4.50;;;;;;;10.43;100.00;101698.56;10495070;28;20090;-69
2022/11/11 10:25:25;;;;;;;13.77;5.70;;;;;;;10.03;100.00;101622.31;10498516;28;20052;-69
2022/11/11 10:30:31;;;;;;;13.43;6.85;;;;;;;10.55;100.00;101706.44;10497420;28;20040;-69
2022/11/11 10:35:32;;;;;;;11.07;4.47;;;;;;;10.47;100.00;101689.34;10494839;28;20045;-70
2022/11/11 10:40:51;;;;;;;7.40;3.67;;;;;;;10.36;100.00;101631.00;10495108;28;20053;-70
2022/11/11 10:46:08;;;;;;;8.68;4.25;;;;;;;10.91;100.00;101719.13;10494997;28;20508;-70
2022/11/11 10:51:11;;;;;;;11.90;3.78;;;;;;;10.55;100.00;101653.28;10496928;28;20040;-70
2022/11/11 10:56:35;;;;;;;21.23;4.57;;;;;;;10.91;100.00;101708.47;10495890;28;20040;-70
2022/11/11 11:01:49;;;;;;;;;;;;;;;11.01;100.00;101702.34;10492169;28;20435;-70
2022/11/11 11:06:51;;;;;;;;;;;;;;;10.99;100.00;101706.97;10496088;28;19959;-70
2022/11/11 11:12:08;;;;;;;9.40;4.53;;;;;;;10.61;100.00;101680.16;10501536;28;20384;-71
2022/11/11 11:17:30;;;;;;;16.63;4.72;;;;;;;10.24;100.00;101638.19;10501899;28;20119;-69
2022/11/11 11:22:51;;;;;;;9.93;4.45;;;;;;;10.17;100.00;101629.09;10501147;28;20118;-68
2022/11/11 11:28:03;;;;;;;15.40;4.88;;;;;;;10.50;100.00;101713.00;10501462;28;20540;-69
2022/11/11 11:33:06;;;;;;;15.52;4.50;;;;;;;10.46;100.00;101711.56;10501285;28;20044;-69
2022/11/11 11:38:09;;;;;;;8.05;4.50;;;;;;;10.42;100.00;101718.13;10500444;28;20500;-70
2022/11/11 11:43:23;;;;;;;13.27;4.20;;;;;;;10.48;100.00;101730.88;10500876;28;20036;-69
2022/11/11 11:48:51;;;;;;;15.32;5.18;;;;;;;10.37;100.00;101728.31;10504751;28;20048;-69
2022/11/11 11:54:04;;;;;;;13.05;5.07;;;;;;;10.35;100.00;101722.31;10500989;28;20060;-70
2022/11/11 11:59:11;;;;;;;8.48;4.88;;;;;;;10.39;100.00;101720.22;10499671;28;20500;-71
2022/11/11 12:04:45;;;;;;;13.43;5.43;;;;;;;10.42;100.00;101727.91;10500902;28;20036;-70
2022/11/11 12:09:59;;;;;;;15.77;5.68;;;;;;;10.26;100.00;101723.03;10499900;28;20040;-71
2022/11/11 12:15:09;;;;;;;13.13;5.40;;;;;;;9.20;100.00;101566.69;10499181;28;20084;-70
2022/11/11 12:20:15;;;;;;;13.77;5.22;;;;;;;10.20;100.00;101720.91;10498652;28;20123;-71
2022/11/11 12:25:53;;;;;;;11.00;5.30;;;;;;;10.42;100.00;101712.81;10496909;28;20052;-71
2022/11/11 12:31:14;;;;;;;13.77;5.40;;;;;;;10.63;100.00;101719.91;10502982;28;20048;-71
2022/11/11 12:36:36;;;;;;;14.18;5.25;;;;;;;10.74;100.00;101728.59;10517710;28;20105;-70
2022/11/11 12:42:09;;;;;;;14.25;5.20;;;;;;;10.63;100.00;101719.91;10518387;28;20143;-70
2022/11/11 12:47:31;;;;;;;18.70;5.50;;;;;;;9.92;100.00;101651.59;10497246;28;20044;-70
2022/11/11 12:53:10;;;;;;;11.60;5.78;;;;;;;10.06;100.00;101714.97;10504137;28;20692;-70
2022/11/11 12:58:39;;;;;;;21.67;7.40;;;;;;;9.90;100.00;101708.44;10515279;28;20049;-72
2022/11/11 13:04:04;;;;;;;23.52;6.53;;;;;;;10.02;100.00;101728.63;10506984;28;20063;-73
2022/11/11 13:09:38;;;;;;;13.35;6.50;;;;;;;9.83;100.00;101694.84;10537565;28;20139;-71
2022/11/11 13:14:56;;;;;;;81.85;8.88;;;;;;;9.98;100.00;101709.47;10538918;28;20055;-71
2022/11/11 13:20:02;;;;;;;57.92;8.93;;;;;;;10.10;100.00;101722.69;10532399;28;20043;-71
2022/11/11 13:25:05;;;;;;;34.67;7.57;;;;;;;9.62;100.00;101649.75;10510642;28;20094;-71
2022/11/11 13:30:40;;;;;;;53.70;10.25;;;;;;;10.05;100.00;101723.94;10499957;28;20033;-71
2022/11/11 13:35:50;;;;;;;24.08;8.52;;;;;;;9.98;100.00;101729.88;10535230;28;20423;-70
2022/11/11 13:40:54;;;;;;;21.65;8.05;;;;;;;9.93;100.00;101732.06;10512321;28;20052;-72
2022/11/11 13:45:58;;;;;;;37.72;9.45;;;;;;;9.85;100.00;101723.94;10512491;28;20055;-72
2022/11/11 13:51:11;;;;;;;15.73;7.30;;;;;;;9.98;100.00;101729.88;10511130;28;20504;-72
2022/11/11 13:56:43;;;;;;;25.08;7.60;;;;;;;9.83;100.00;101722.22;10513787;28;20784;-73
2022/11/11 14:01:44;;;;;;;26.48;7.78;;;;;;;8.97;100.00;101618.97;10507278;28;20511;-72
2022/11/11 14:06:50;;;;;;;25.30;8.32;;;;;;;9.36;100.00;101735.03;10506193;28;20056;-72
2022/11/11 14:12:22;;;;;;;25.02;9.27;;;;;;;9.19;100.00;101738.19;10495236;28;20080;-73
2022/11/11 14:17:23;;;;;;;25.27;8.13;;;;;;;8.94;100.00;101755.22;10502189;28;20128;-72
2022/11/11 14:22:30;;;;;;;31.05;10.98;;;;;;;8.86;100.00;101744.41;10513505;28;20036;-72
2022/11/11 14:27:33;;;;;;;26.08;9.93;;;;;;;8.87;100.00;101749.56;10511017;28;20519;-72
2022/11/11 14:32:48;;;;;;;74.65;38.95;;;;;;;8.96;100.00;101760.41;10512291;28;20575;-72
2022/11/11 14:38:03;;;;;;;67.68;31.38;;;;;;;8.45;100.00;101659.31;10511181;28;20395;-72
2022/11/11 14:43:39;;;;;;;55.42;25.50;;;;;;;9.06;100.00;101748.09;10519400;28;20041;-72
2022/11/11 14:48:58;;;;;;;91.07;37.47;;;;;;;9.06;100.00;101753.41;10524069;28;20049;-72
2022/11/11 14:54:01;;;;;;;46.22;18.00;;;;;;;9.05;100.00;101755.22;10521185;28;20048;-72
2022/11/11 14:59:07;;;;;;;45.50;19.50;;;;;;;9.05;100.00;101759.69;10543190;28;20040;-72
2022/11/11 15:04:08;;;;;;;93.28;46.65;;;;;;;9.17;100.00;101766.63;10529969;28;20416;-72
2022/11/11 15:09:21;;;;;;;98.93;53.53;;;;;;;9.16;100.00;101754.34;10520987;28;20412;-72
2022/11/11 15:14:53;;;;;;;86.10;42.10;;;;;;;9.31;100.00;101770.84;10501949;28;20044;-71
2022/11/11 15:20:03;;;;;;;388.88;182.55;;;;;;;8.98;100.00;101724.03;10499970;28;20032;-71
2022/11/11 15:25:22;;;;;;;294.45;134.65;;;;;;;9.36;100.00;101774.78;10500902;28;20067;-71
2022/11/11 15:30:54;;;;;;;378.80;186.70;;;;;;;9.42;100.00;101770.78;10501816;28;20040;-71
2022/11/11 15:36:32;;;;;;;189.73;92.65;;;;;;;9.43;100.00;101767.19;10492795;28;20067;-71
2022/11/11 15:41:38;;;;;;;160.35;76.63;;;;;;;9.38;100.00;101777.31;10501363;28;20064;-71
2022/11/11 15:46:42;;;;;;;162.57;79.80;;;;;;;9.38;100.00;101764.06;10500616;28;20045;-71
2022/11/11 15:51:42;;;;;;;158.53;80.43;;;;;;;9.46;100.00;101782.00;10500495;28;20482;-71
2022/11/11 15:56:43;;;;;;;162.00;74.50;;;;;;;9.51;100.00;101785.09;10498800;28;20310;-70
2022/11/11 16:01:44;;;;;;;125.82;60.17;;;;;;;9.44;100.00;101757.41;10516154;28;20128;-71
2022/11/11 16:06:46;;;;;;;101.60;52.08;;;;;;;9.52;100.00;101766.41;10525791;28;20462;-71
2022/11/11 16:11:47;;;;;;;100.82;55.55;;;;;;;9.54;100.00;101775.09;10524768;28;20481;-72
2022/11/11 16:16:49;;;;;;;84.38;50.53;;;;;;;8.96;100.00;101679.09;10513521;28;20055;-71
2022/11/11 16:22:03;;;;;;;67.30;37.88;;;;;;;9.44;100.00;101758.25;10509868;28;20044;-72
2022/11/11 16:27:05;;;;;;;54.05;31.70;;;;;;;9.52;100.00;101765.59;10497871;28;20100;-71
2022/11/11 16:32:34;;;;;;;60.33;37.30;;;;;;;9.59;100.00;101766.75;10512999;28;20161;-71
2022/11/11 16:37:50;;;;;;;51.53;24.98;;;;;;;9.42;100.00;101762.81;10510491;28;20048;-71
2022/11/11 16:42:52;;;;;;;33.75;17.23;;;;;;;9.22;100.00;101747.72;10509983;28;21230;-71
2022/11/11 16:47:53;;;;;;;34.95;18.40;;;;;;;9.17;100.00;101777.25;10508241;28;20047;-71
2022/11/11 16:53:03;;;;;;;39.40;20.58;;;;;;;8.61;100.00;101695.16;10508721;28;20036;-72
2022/11/11 16:58:12;;;;;;;36.45;19.00;;;;;;;8.45;100.00;101687.59;10506927;28;20043;-71
2022/11/11 17:03:19;;;;;;;45.13;18.77;;;;;;;8.88;100.00;101774.25;10511151;28;20052;-73
2022/11/11 17:08:38;;;;;;;56.33;25.25;;;;;;;8.89;100.00;101768.03;10510012;28;20043;-71
2022/11/11 17:13:39;;;;;;;50.33;20.02;;;;;;;8.24;100.00;101669.75;10503526;28;20028;-72
2022/11/11 17:18:40;;;;;;;92.40;42.20;;;;;;;8.63;100.00;101735.63;10506302;28;20504;-71
2022/11/11 17:23:41;;;;;;;65.20;29.40;;;;;;;8.73;100.00;101751.63;10511361;28;20040;-71
2022/11/11 17:28:41;;;;;;;82.47;36.55;;;;;;;8.42;100.00;101735.50;10509568;28;20495;-71
2022/11/11 17:33:42;;;;;;;104.28;50.85;;;;;;;8.19;100.00;101731.97;10510573;28;20028;-72
2022/11/11 17:38:44;;;;;;;82.72;33.20;;;;;;;7.63;100.00;101677.16;10518857;28;20060;-72
2022/11/11 17:43:44;;;;;;;76.13;33.05;;;;;;;7.94;100.00;101741.78;10516125;28;20049;-72
2022/11/11 17:48:45;;;;;;;73.22;31.90;;;;;;;7.77;100.00;101736.94;10520694;28;20056;-72
2022/11/11 17:53:46;;;;;;;62.88;31.65;;;;;;;7.60;100.00;101751.44;10523694;28;20055;-72
2022/11/11 17:58:47;;;;;;;69.45;29.88;;;;;;;7.46;100.00;101743.69;10495692;28;20147;-72
2022/11/11 18:03:47;;;;;;;63.17;29.58;;;;;;;6.86;100.00;101677.53;10506153;28;20047;-72
2022/11/11 18:08:48;;;;;;;55.67;26.25;;;;;;;7.11;100.00;101728.59;10505635;28;20056;-72
2022/11/11 18:13:49;;;;;;;58.53;25.88;;;;;;;6.83;100.00;101688.31;10495614;28;20036;-72
2022/11/11 18:18:52;;;;;;;55.22;25.30;;;;;;;6.85;100.00;101728.69;10510123;28;20052;-72
2022/11/11 18:23:53;;;;;;;49.65;23.73;;;;;;;6.90;100.00;101738.06;10511722;28;20040;-72
2022/11/11 18:28:54;;;;;;;54.35;27.10;;;;;;;6.81;100.00;101732.47;10519073;28;20465;-72
2022/11/11 18:33:54;;;;;;;51.78;22.95;;;;;;;6.66;100.00;101738.84;10519883;28;20048;-73
2022/11/11 18:38:55;;;;;;;59.20;28.13;;;;;;;6.06;100.00;101649.84;10503049;28;20079;-73
2022/11/11 18:43:58;;;;;;;46.55;21.35;;;;;;;6.20;100.00;101701.66;10517421;28;20488;-72
2022/11/11 18:49:01;;;;;;;51.28;20.63;;;;;;;6.28;100.00;101734.47;10518769;28;20040;-73
2022/11/11 18:54:02;;;;;;;39.53;20.23;;;;;;;6.21;100.00;101729.72;10502038;28;20040;-72
2022/11/11 18:59:03;;;;;;;43.28;20.73;;;;;;;5.58;100.00;101639.88;10501726;28;20037;-73
2022/11/11 19:04:06;;;;;;;52.40;22.77;;;;;;;6.05;100.00;101727.28;10501695;28;20484;-73
2022/11/11 19:09:10;;;;;;;44.75;19.98;;;;;;;5.96;100.00;101727.94;10498635;28;20050;-73
2022/11/11 19:14:12;;;;;;;49.85;21.48;;;;;;;5.53;100.00;101678.88;10511240;28;20040;-72
2022/11/11 19:19:14;;;;;;;55.80;24.20;;;;;;;5.76;100.00;101730.06;10501411;28;20036;-73
2022/11/11 19:24:15;;;;;;;85.70;38.05;;;;;;;5.66;100.00;101707.91;10501633;28;20412;-72
2022/11/11 19:29:16;;;;;;;153.13;65.05;;;;;;;5.73;100.00;101731.13;10500681;28;20032;-73
2022/11/11 19:34:17;;;;;;;108.15;45.33;;;;;;;5.73;100.00;101732.91;10501032;28;20038;-73
2022/11/11 19:39:17;;;;;;;59.42;26.33;;;;;;;5.12;100.00;101635.06;10501286;28;20492;-73
2022/11/11 19:44:18;;;;;;;45.20;22.40;;;;;;;5.59;100.00;101720.63;10500962;28;20492;-73
2022/11/11 19:49:19;;;;;;;32.85;19.35;;;;;;;5.55;100.00;101723.59;10501047;28;20056;-73
2022/11/11 19:54:20;;;;;;;27.40;14.85;;;;;;;5.56;100.00;101725.28;10516452;28;20044;-73
2022/11/11 19:59:21;;;;;;;32.17;15.35;;;;;;;5.05;100.00;101668.00;10498106;28;20052;-71
2022/11/11 20:04:22;;;;;;;30.30;16.52;;;;;;;5.28;100.00;101724.47;10550071;28;20049;-72
2022/11/11 20:09:23;;;;;;;29.08;13.95;;;;;;;5.29;100.00;101731.41;10514416;28;20076;-71
2022/11/11 20:14:23;;;;;;;27.48;10.68;;;;;;;4.65;100.00;101627.59;10522861;28;20091;-71
2022/11/11 20:19:24;;;;;;;44.17;11.52;;;;;;;5.39;100.00;101737.78;10540828;28;20040;-71
2022/11/11 20:24:25;;;;;;;109.60;13.63;;;;;;;4.92;100.00;101672.38;10541341;28;20044;-71
2022/11/11 20:29:28;;;;;;;122.50;12.25;;;;;;;5.32;100.00;101717.19;10541203;28;20514;-71
2022/11/11 20:34:28;;;;;;;108.75;13.45;;;;;;;5.20;100.00;101660.88;10540134;28;20556;-71
2022/11/11 20:39:29;;;;;;;95.68;13.60;;;;;;;5.73;100.00;101739.03;10539762;28;20138;-71
2022/11/11 20:44:30;;;;;;;86.28;13.68;;;;;;;5.69;100.00;101723.53;10540866;28;20408;-71
2022/11/11 20:49:33;;;;;;;125.25;17.30;;;;;;;5.71;100.00;101730.38;10540392;28;20051;-71
2022/11/11 20:54:34;;;;;;;224.32;17.88;;;;;;;5.94;100.00;101757.03;10540499;28;20044;-71
2022/11/11 20:59:34;;;;;;;84.97;12.98;;;;;;;6.02;100.00;101759.16;10539833;28;20424;-71
2022/11/11 21:04:35;;;;;;;166.30;14.70;;;;;;;6.06;100.00;101755.34;10575745;28;20050;-71
2022/11/11 21:09:36;;;;;;;141.48;12.85;;;;;;;6.06;100.00;101736.88;10581819;28;20043;-71
2022/11/11 21:14:37;;;;;;;183.43;13.20;;;;;;;6.24;100.00;101756.75;10581262;28;20491;-71
2022/11/11 21:19:38;;;;;;;170.98;12.02;;;;;;;6.36;100.00;101763.81;10581378;28;20130;-71
2022/11/11 21:24:39;;;;;;;257.55;11.40;;;;;;;6.24;100.00;101738.25;10580348;28;20060;-71
2022/11/11 21:29:39;;;;;;;153.50;9.68;;;;;;;5.97;100.00;101676.84;10580572;28;20039;-71
2022/11/11 21:34:40;;;;;;;45.97;6.75;;;;;;;6.44;100.00;101759.81;10580301;28;20090;-71
2022/11/11 21:39:41;;;;;;;81.75;6.70;;;;;;;6.31;100.00;101743.97;10580554;28;20396;-71
2022/11/11 21:44:42;;;;;;;106.93;8.70;;;;;;;6.42;100.00;101762.53;10578462;28;20051;-71
2022/11/11 21:49:42;;;;;;;57.60;6.80;;;;;;;6.46;100.00;101753.47;10580351;28;20103;-71
2022/11/11 21:54:43;;;;;;;233.30;10.15;;;;;;;6.02;100.00;101691.41;10580025;28;20046;-71
2022/11/11 21:59:44;;;;;;;91.68;7.63;;;;;;;6.18;100.00;101714.94;10579959;28;20122;-71
2022/11/11 22:04:44;;;;;;;111.35;7.75;;;;;;;5.09;100.00;101563.31;10579044;28;20072;-71
2022/11/11 22:09:45;;;;;;;220.07;10.48;;;;;;;5.84;100.00;101661.00;10579173;28;20039;-71
2022/11/11 22:14:46;;;;;;;292.75;11.93;;;;;;;6.47;100.00;101770.16;10561523;28;20045;-71
2022/11/11 22:19:47;;;;;;;233.73;10.20;;;;;;;5.70;100.00;101633.75;10503268;28;20044;-71
2022/11/11 22:24:48;;;;;;;165.45;8.63;;;;;;;6.53;100.00;101780.28;10498320;28;20048;-71
2022/11/11 22:29:49;;;;;;;133.15;10.32;;;;;;;6.37;100.00;101748.81;10579517;28;20131;-71
2022/11/11 22:34:49;;;;;;;163.35;8.98;;;;;;;6.55;100.00;101787.16;10578473;28;20051;-71
2022/11/11 22:39:50;;;;;;;162.10;7.82;;;;;;;6.52;100.00;101786.50;10579375;28;20052;-71
2022/11/11 22:44:51;;;;;;;143.20;8.90;;;;;;;6.51;100.00;101787.47;10579016;28;20051;-71
2022/11/11 22:49:52;;;;;;;99.45;7.40;;;;;;;6.42;100.00;101769.63;10579047;28;20040;-71
2022/11/11 22:54:53;;;;;;;128.85;8.95;;;;;;;6.55;100.00;101787.16;10578747;27;20044;-71
2022/11/11 22:59:53;;;;;;;384.85;14.27;;;;;;;6.56;100.00;101782.72;10579356;28;20043;-71
2022/11/11 23:04:54;;;;;;;197.73;11.60;;;;;;;6.57;100.00;101776.47;10583096;28;20039;-71
2022/11/11 23:09:55;;;;;;;356.60;15.10;;;;;;;6.50;100.00;101769.94;10584700;28;20044;-71
2022/11/11 23:14:56;;;;;;;222.68;11.65;;;;;;;6.53;100.00;101770.56;10585627;28;20036;-71
2022/11/11 23:19:56;;;;;;;214.57;13.55;;;;;;;6.17;100.00;101726.47;10586526;27;20081;-71
2022/11/11 23:24:57;;;;;;;246.57;13.23;;;;;;;6.31;100.00;101768.56;10586454;28;20088;-71
2022/11/11 23:29:58;;;;;;;204.05;13.88;;;;;;;5.87;100.00;101676.63;10585875;28;20032;-71
2022/11/11 23:34:59;;;;;;;237.02;12.68;;;;;;;6.28;100.00;101742.41;10585381;28;20099;-71
2022/11/11 23:40:00;;;;;;;277.35;14.80;;;;;;;6.33;100.00;101774.56;10584192;28;20134;-71
2022/11/11 23:45:00;;;;;;;102.88;11.00;;;;;;;6.27;100.00;101755.69;10583846;28;20082;-71
2022/11/11 23:50:01;;;;;;;54.30;10.70;;;;;;;6.35;100.00;101761.28;10584128;28;20043;-71
2022/11/11 23:55:02;;;;;;;209.98;12.75;;;;;;;5.94;100.00;101713.03;10584846;27;20062;-71
